sensor_id;sensor_type;location;lat;lon;timestamp;P1;durP1;ratioP1;P2;durP2;ratioP2
20861;SDS011;10591;52.532;13.348;2023-03-01T00:01:17;27.40;;;18.13;;
20861;SDS011;10591;52.532;13.348;2023-03-01T00:03:50;29.57;;;16.70;;
20861;SDS011;10591;52.532;13.348;2023-03-01T00:06:22;24.37;;;16.07;;
20861;SDS011;10591;52.532;13.348;2023-03-01T00:08:54;27.77;;;17.10;;
20861;SDS011;10591;52.532;13.348;2023-03-01T00:11:26;25.10;;;16.23;;
20861;SDS011;10591;52.532;13.348;2023-03-01T00:13:59;25.63;;;16.83;;
20861;SDS011;10591;52.532;13.348;2023-03-01T00:16:38;26.07;;;17.07;;
20861;SDS011;10591;52.532;13.348;2023-03-01T00:19:08;30.13;;;18.00;;
20861;SDS011;10591;52.532;13.348;2023-03-01T00:21:41;31.93;;;18.70;;
20861;SDS011;10591;52.532;13.348;2023-03-01T00:24:12;30.63;;;18.83;;
20861;SDS011;10591;52.532;13.348;2023-03-01T00:26:43;25.47;;;17.83;;
20861;SDS011;10591;52.532;13.348;2023-03-01T00:29:15;28.67;;;18.70;;
20861;SDS011;10591;52.532;13.348;2023-03-01T00:31:48;30.77;;;18.77;;
20861;SDS011;10591;52.532;13.348;2023-03-01T00:34:21;30.97;;;17.67;;
20861;SDS011;10591;52.532;13.348;2023-03-01T00:36:51;28.93;;;18.23;;
20861;SDS011;10591;52.532;13.348;2023-03-01T00:39:22;25.73;;;17.83;;
20861;SDS011;10591;52.532;13.348;2023-03-01T00:41:54;22.77;;;16.60;;
20861;SDS011;10591;52.532;13.348;2023-03-01T00:44:29;24.90;;;16.47;;
20861;SDS011;10591;52.532;13.348;2023-03-01T00:47:01;27.63;;;17.03;;
20861;SDS011;10591;52.532;13.348;2023-03-01T00:49:32;24.63;;;17.20;;
20861;SDS011;10591;52.532;13.348;2023-03-01T00:52:02;27.10;;;17.50;;
20861;SDS011;10591;52.532;13.348;2023-03-01T00:54:33;27.03;;;17.13;;
20861;SDS011;10591;52.532;13.348;2023-03-01T00:57:03;26.97;;;16.60;;
20861;SDS011;10591;52.532;13.348;2023-03-01T00:59:34;30.17;;;18.00;;
20861;SDS011;10591;52.532;13.348;2023-03-01T01:02:06;27.93;;;17.00;;
20861;SDS011;10591;52.532;13.348;2023-03-01T01:04:36;25.07;;;17.57;;
20861;SDS011;10591;52.532;13.348;2023-03-01T01:07:07;28.40;;;17.23;;
20861;SDS011;10591;52.532;13.348;2023-03-01T01:09:40;27.73;;;17.37;;
20861;SDS011;10591;52.532;13.348;2023-03-01T01:12:11;28.10;;;17.97;;
20861;SDS011;10591;52.532;13.348;2023-03-01T01:14:44;27.80;;;18.53;;
20861;SDS011;10591;52.532;13.348;2023-03-01T01:17:14;27.77;;;17.43;;
20861;SDS011;10591;52.532;13.348;2023-03-01T01:19:45;26.40;;;18.33;;
20861;SDS011;10591;52.532;13.348;2023-03-01T01:22:16;28.50;;;18.50;;
20861;SDS011;10591;52.532;13.348;2023-03-01T01:24:46;25.80;;;17.17;;
20861;SDS011;10591;52.532;13.348;2023-03-01T01:27:18;28.17;;;18.17;;
20861;SDS011;10591;52.532;13.348;2023-03-01T01:29:49;27.43;;;18.17;;
20861;SDS011;10591;52.532;13.348;2023-03-01T01:32:20;26.27;;;17.43;;
20861;SDS011;10591;52.532;13.348;2023-03-01T01:34:52;26.00;;;17.63;;
20861;SDS011;10591;52.532;13.348;2023-03-01T01:37:24;26.77;;;17.53;;
20861;SDS011;10591;52.532;13.348;2023-03-01T01:40:02;28.20;;;18.87;;
20861;SDS011;10591;52.532;13.348;2023-03-01T01:42:28;26.67;;;17.97;;
20861;SDS011;10591;52.532;13.348;2023-03-01T01:48:00;27.73;;;18.33;;
20861;SDS011;10591;52.532;13.348;2023-03-01T01:50:32;24.83;;;17.30;;
20861;SDS011;10591;52.532;13.348;2023-03-01T01:53:14;26.83;;;17.60;;
20861;SDS011;10591;52.532;13.348;2023-03-01T01:55:50;28.47;;;18.40;;
20861;SDS011;10591;52.532;13.348;2023-03-01T01:58:19;27.20;;;18.57;;
20861;SDS011;10591;52.532;13.348;2023-03-01T02:00:51;30.40;;;19.87;;
20861;SDS011;10591;52.532;13.348;2023-03-01T02:03:23;30.63;;;18.87;;
20861;SDS011;10591;52.532;13.348;2023-03-01T02:06:03;27.57;;;18.27;;
20861;SDS011;10591;52.532;13.348;2023-03-01T02:08:37;28.60;;;18.40;;
20861;SDS011;10591;52.532;13.348;2023-03-01T02:11:10;23.30;;;17.10;;
20861;SDS011;10591;52.532;13.348;2023-03-01T02:13:44;26.47;;;18.13;;
20861;SDS011;10591;52.532;13.348;2023-03-01T02:16:16;25.27;;;17.73;;
20861;SDS011;10591;52.532;13.348;2023-03-01T02:18:47;26.57;;;18.07;;
20861;SDS011;10591;52.532;13.348;2023-03-01T02:21:29;29.57;;;19.13;;
20861;SDS011;10591;52.532;13.348;2023-03-01T02:24:13;25.67;;;17.37;;
20861;SDS011;10591;52.532;13.348;2023-03-01T02:26:45;33.47;;;18.90;;
20861;SDS011;10591;52.532;13.348;2023-03-01T02:29:18;29.07;;;19.13;;
20861;SDS011;10591;52.532;13.348;2023-03-01T02:31:52;26.83;;;18.47;;
20861;SDS011;10591;52.532;13.348;2023-03-01T02:34:27;24.83;;;17.77;;
20861;SDS011;10591;52.532;13.348;2023-03-01T02:37:01;24.73;;;17.70;;
20861;SDS011;10591;52.532;13.348;2023-03-01T02:39:41;29.47;;;17.90;;
20861;SDS011;10591;52.532;13.348;2023-03-01T02:42:11;28.40;;;17.67;;
20861;SDS011;10591;52.532;13.348;2023-03-01T02:44:44;28.80;;;18.40;;
20861;SDS011;10591;52.532;13.348;2023-03-01T02:47:15;30.80;;;18.23;;
20861;SDS011;10591;52.532;13.348;2023-03-01T02:49:46;25.03;;;17.70;;
20861;SDS011;10591;52.532;13.348;2023-03-01T02:52:33;26.17;;;17.80;;
20861;SDS011;10591;52.532;13.348;2023-03-01T02:55:20;25.13;;;17.10;;
20861;SDS011;10591;52.532;13.348;2023-03-01T02:57:52;24.50;;;17.40;;
20861;SDS011;10591;52.532;13.348;2023-03-01T03:00:27;28.10;;;18.07;;
20861;SDS011;10591;52.532;13.348;2023-03-01T03:02:59;30.27;;;17.77;;
20861;SDS011;10591;52.532;13.348;2023-03-01T03:05:30;27.83;;;18.20;;
20861;SDS011;10591;52.532;13.348;2023-03-01T03:08:02;25.30;;;16.53;;
20861;SDS011;10591;52.532;13.348;2023-03-01T03:10:34;25.80;;;17.63;;
20861;SDS011;10591;52.532;13.348;2023-03-01T03:13:09;28.60;;;17.70;;
20861;SDS011;10591;52.532;13.348;2023-03-01T03:15:42;26.03;;;17.00;;
20861;SDS011;10591;52.532;13.348;2023-03-01T03:18:14;24.83;;;17.00;;
20861;SDS011;10591;52.532;13.348;2023-03-01T03:20:45;24.20;;;16.90;;
20861;SDS011;10591;52.532;13.348;2023-03-01T03:23:16;27.30;;;16.17;;
20861;SDS011;10591;52.532;13.348;2023-03-01T03:25:50;24.43;;;16.97;;
20861;SDS011;10591;52.532;13.348;2023-03-01T03:28:21;25.10;;;17.20;;
20861;SDS011;10591;52.532;13.348;2023-03-01T03:30:51;26.53;;;16.27;;
20861;SDS011;10591;52.532;13.348;2023-03-01T03:33:22;27.37;;;17.07;;
20861;SDS011;10591;52.532;13.348;2023-03-01T03:35:52;25.00;;;16.57;;
20861;SDS011;10591;52.532;13.348;2023-03-01T03:38:23;24.77;;;16.17;;
20861;SDS011;10591;52.532;13.348;2023-03-01T03:41:05;29.27;;;17.87;;
20861;SDS011;10591;52.532;13.348;2023-03-01T03:43:32;30.70;;;17.87;;
20861;SDS011;10591;52.532;13.348;2023-03-01T03:46:04;25.60;;;17.43;;
20861;SDS011;10591;52.532;13.348;2023-03-01T03:48:38;25.13;;;17.60;;
20861;SDS011;10591;52.532;13.348;2023-03-01T03:51:11;26.60;;;16.63;;
20861;SDS011;10591;52.532;13.348;2023-03-01T03:53:43;26.00;;;17.47;;
20861;SDS011;10591;52.532;13.348;2023-03-01T03:56:15;26.03;;;17.57;;
20861;SDS011;10591;52.532;13.348;2023-03-01T03:58:45;25.80;;;17.50;;
20861;SDS011;10591;52.532;13.348;2023-03-01T04:01:16;26.47;;;17.80;;
20861;SDS011;10591;52.532;13.348;2023-03-01T04:03:47;25.30;;;17.37;;
20861;SDS011;10591;52.532;13.348;2023-03-01T04:06:17;24.63;;;17.33;;
20861;SDS011;10591;52.532;13.348;2023-03-01T04:08:49;25.93;;;17.43;;
20861;SDS011;10591;52.532;13.348;2023-03-01T04:11:22;26.80;;;18.07;;
20861;SDS011;10591;52.532;13.348;2023-03-01T04:13:56;25.80;;;16.67;;
20861;SDS011;10591;52.532;13.348;2023-03-01T04:16:28;23.20;;;16.67;;
20861;SDS011;10591;52.532;13.348;2023-03-01T04:19:00;24.53;;;16.40;;
20861;SDS011;10591;52.532;13.348;2023-03-01T04:21:31;24.60;;;16.87;;
20861;SDS011;10591;52.532;13.348;2023-03-01T04:24:03;23.00;;;17.00;;
20861;SDS011;10591;52.532;13.348;2023-03-01T04:26:35;27.27;;;17.33;;
20861;SDS011;10591;52.532;13.348;2023-03-01T04:29:05;28.47;;;17.20;;
20861;SDS011;10591;52.532;13.348;2023-03-01T04:31:36;28.67;;;18.43;;
20861;SDS011;10591;52.532;13.348;2023-03-01T04:34:07;28.70;;;18.30;;
20861;SDS011;10591;52.532;13.348;2023-03-01T04:36:37;26.30;;;18.70;;
20861;SDS011;10591;52.532;13.348;2023-03-01T04:39:09;27.80;;;17.80;;
20861;SDS011;10591;52.532;13.348;2023-03-01T04:41:41;23.97;;;16.97;;
20861;SDS011;10591;52.532;13.348;2023-03-01T04:44:16;26.53;;;17.10;;
20861;SDS011;10591;52.532;13.348;2023-03-01T04:46:48;27.50;;;16.87;;
20861;SDS011;10591;52.532;13.348;2023-03-01T04:49:19;27.80;;;17.07;;
20861;SDS011;10591;52.532;13.348;2023-03-01T04:51:50;27.93;;;18.47;;
20861;SDS011;10591;52.532;13.348;2023-03-01T04:54:20;25.73;;;17.10;;
20861;SDS011;10591;52.532;13.348;2023-03-01T04:56:51;24.67;;;16.60;;
20861;SDS011;10591;52.532;13.348;2023-03-01T04:59:23;23.53;;;17.53;;
20861;SDS011;10591;52.532;13.348;2023-03-01T05:01:54;28.37;;;18.27;;
20861;SDS011;10591;52.532;13.348;2023-03-01T05:04:27;26.50;;;17.47;;
20861;SDS011;10591;52.532;13.348;2023-03-01T05:06:59;25.63;;;17.13;;
20861;SDS011;10591;52.532;13.348;2023-03-01T05:09:29;27.33;;;16.67;;
20861;SDS011;10591;52.532;13.348;2023-03-01T05:12:00;23.23;;;15.63;;
20861;SDS011;10591;52.532;13.348;2023-03-01T05:14:31;23.20;;;16.03;;
20861;SDS011;10591;52.532;13.348;2023-03-01T05:17:02;27.27;;;16.33;;
20861;SDS011;10591;52.532;13.348;2023-03-01T05:19:33;22.13;;;16.43;;
20861;SDS011;10591;52.532;13.348;2023-03-01T05:22:04;25.77;;;16.17;;
20861;SDS011;10591;52.532;13.348;2023-03-01T05:24:35;23.80;;;15.47;;
20861;SDS011;10591;52.532;13.348;2023-03-01T05:27:08;25.73;;;16.10;;
20861;SDS011;10591;52.532;13.348;2023-03-01T05:29:39;25.27;;;15.73;;
20861;SDS011;10591;52.532;13.348;2023-03-01T05:32:10;25.20;;;15.67;;
20861;SDS011;10591;52.532;13.348;2023-03-01T05:34:42;26.27;;;16.97;;
20861;SDS011;10591;52.532;13.348;2023-03-01T05:37:14;24.63;;;16.37;;
20861;SDS011;10591;52.532;13.348;2023-03-01T05:39:45;23.20;;;16.40;;
20861;SDS011;10591;52.532;13.348;2023-03-01T05:42:18;24.40;;;16.47;;
20861;SDS011;10591;52.532;13.348;2023-03-01T05:44:49;26.07;;;16.60;;
20861;SDS011;10591;52.532;13.348;2023-03-01T05:47:23;29.30;;;16.77;;
20861;SDS011;10591;52.532;13.348;2023-03-01T05:49:54;22.70;;;15.90;;
20861;SDS011;10591;52.532;13.348;2023-03-01T05:52:25;24.30;;;16.97;;
20861;SDS011;10591;52.532;13.348;2023-03-01T05:54:55;26.90;;;17.30;;
20861;SDS011;10591;52.532;13.348;2023-03-01T05:57:28;26.20;;;16.33;;
20861;SDS011;10591;52.532;13.348;2023-03-01T05:59:59;29.07;;;17.80;;
20861;SDS011;10591;52.532;13.348;2023-03-01T06:02:30;23.67;;;17.73;;
20861;SDS011;10591;52.532;13.348;2023-03-01T06:05:01;23.93;;;17.17;;
20861;SDS011;10591;52.532;13.348;2023-03-01T06:07:33;26.47;;;17.13;;
20861;SDS011;10591;52.532;13.348;2023-03-01T06:10:05;27.07;;;17.00;;
20861;SDS011;10591;52.532;13.348;2023-03-01T06:12:37;25.70;;;17.63;;
20861;SDS011;10591;52.532;13.348;2023-03-01T06:15:18;26.97;;;17.60;;
20861;SDS011;10591;52.532;13.348;2023-03-01T06:17:44;24.90;;;16.40;;
20861;SDS011;10591;52.532;13.348;2023-03-01T06:20:17;32.07;;;18.83;;
20861;SDS011;10591;52.532;13.348;2023-03-01T06:22:49;29.37;;;17.33;;
20861;SDS011;10591;52.532;13.348;2023-03-01T06:25:21;27.43;;;17.20;;
20861;SDS011;10591;52.532;13.348;2023-03-01T06:27:53;25.77;;;17.13;;
20861;SDS011;10591;52.532;13.348;2023-03-01T06:30:26;30.20;;;18.07;;
20861;SDS011;10591;52.532;13.348;2023-03-01T06:32:59;33.70;;;18.53;;
20861;SDS011;10591;52.532;13.348;2023-03-01T06:35:31;28.67;;;19.17;;
20861;SDS011;10591;52.532;13.348;2023-03-01T06:38:02;31.97;;;19.20;;
20861;SDS011;10591;52.532;13.348;2023-03-01T06:40:34;31.33;;;19.70;;
20861;SDS011;10591;52.532;13.348;2023-03-01T06:43:04;34.30;;;19.03;;
20861;SDS011;10591;52.532;13.348;2023-03-01T06:45:36;29.07;;;18.40;;
20861;SDS011;10591;52.532;13.348;2023-03-01T06:48:07;28.00;;;17.57;;
20861;SDS011;10591;52.532;13.348;2023-03-01T06:50:39;29.30;;;18.17;;
20861;SDS011;10591;52.532;13.348;2023-03-01T06:53:12;29.17;;;18.33;;
20861;SDS011;10591;52.532;13.348;2023-03-01T06:55:44;29.73;;;17.87;;
20861;SDS011;10591;52.532;13.348;2023-03-01T06:58:14;29.37;;;18.30;;
20861;SDS011;10591;52.532;13.348;2023-03-01T07:00:47;30.83;;;18.33;;
20861;SDS011;10591;52.532;13.348;2023-03-01T07:03:19;27.87;;;17.13;;
20861;SDS011;10591;52.532;13.348;2023-03-01T07:05:51;23.97;;;16.90;;
20861;SDS011;10591;52.532;13.348;2023-03-01T07:08:23;27.20;;;16.83;;
20861;SDS011;10591;52.532;13.348;2023-03-01T07:10:57;23.40;;;16.37;;
20861;SDS011;10591;52.532;13.348;2023-03-01T07:13:30;25.90;;;17.20;;
20861;SDS011;10591;52.532;13.348;2023-03-01T07:16:01;26.77;;;17.23;;
20861;SDS011;10591;52.532;13.348;2023-03-01T07:18:32;27.40;;;17.57;;
20861;SDS011;10591;52.532;13.348;2023-03-01T07:21:09;28.03;;;18.57;;
20861;SDS011;10591;52.532;13.348;2023-03-01T07:23:42;28.83;;;18.33;;
20861;SDS011;10591;52.532;13.348;2023-03-01T07:26:13;24.73;;;17.50;;
20861;SDS011;10591;52.532;13.348;2023-03-01T07:28:43;26.17;;;16.33;;
20861;SDS011;10591;52.532;13.348;2023-03-01T07:31:15;25.37;;;17.27;;
20861;SDS011;10591;52.532;13.348;2023-03-01T07:33:46;21.07;;;16.83;;
20861;SDS011;10591;52.532;13.348;2023-03-01T07:36:16;24.83;;;17.87;;
20861;SDS011;10591;52.532;13.348;2023-03-01T07:38:46;24.77;;;15.97;;
20861;SDS011;10591;52.532;13.348;2023-03-01T07:41:18;23.60;;;16.90;;
20861;SDS011;10591;52.532;13.348;2023-03-01T07:43:49;23.07;;;17.37;;
20861;SDS011;10591;52.532;13.348;2023-03-01T07:46:21;24.43;;;17.00;;
20861;SDS011;10591;52.532;13.348;2023-03-01T07:48:55;23.20;;;15.87;;
20861;SDS011;10591;52.532;13.348;2023-03-01T07:51:27;18.77;;;14.30;;
20861;SDS011;10591;52.532;13.348;2023-03-01T07:53:57;20.87;;;14.20;;
20861;SDS011;10591;52.532;13.348;2023-03-01T07:56:28;19.57;;;14.27;;
20861;SDS011;10591;52.532;13.348;2023-03-01T07:58:59;21.40;;;15.23;;
20861;SDS011;10591;52.532;13.348;2023-03-01T08:01:30;23.30;;;17.03;;
20861;SDS011;10591;52.532;13.348;2023-03-01T08:04:00;21.00;;;14.40;;
20861;SDS011;10591;52.532;13.348;2023-03-01T08:06:31;20.03;;;12.87;;
20861;SDS011;10591;52.532;13.348;2023-03-01T08:09:04;18.53;;;11.27;;
20861;SDS011;10591;52.532;13.348;2023-03-01T08:11:35;13.57;;;9.90;;
20861;SDS011;10591;52.532;13.348;2023-03-01T08:14:06;15.33;;;11.00;;
20861;SDS011;10591;52.532;13.348;2023-03-01T08:19:18;14.80;;;9.77;;
20861;SDS011;10591;52.532;13.348;2023-03-01T08:21:49;20.20;;;10.17;;
20861;SDS011;10591;52.532;13.348;2023-03-01T08:24:20;14.87;;;9.97;;
20861;SDS011;10591;52.532;13.348;2023-03-01T08:26:52;14.37;;;10.87;;
20861;SDS011;10591;52.532;13.348;2023-03-01T08:29:23;17.60;;;12.00;;
20861;SDS011;10591;52.532;13.348;2023-03-01T08:31:57;15.87;;;11.33;;
20861;SDS011;10591;52.532;13.348;2023-03-01T08:34:28;16.70;;;10.93;;
20861;SDS011;10591;52.532;13.348;2023-03-01T08:37:00;12.30;;;9.20;;
20861;SDS011;10591;52.532;13.348;2023-03-01T08:39:30;13.03;;;9.50;;
20861;SDS011;10591;52.532;13.348;2023-03-01T08:42:01;9.40;;;6.23;;
20861;SDS011;10591;52.532;13.348;2023-03-01T08:44:33;12.78;;;8.38;;
20861;SDS011;10591;52.532;13.348;2023-03-01T08:47:03;12.67;;;6.73;;
20861;SDS011;10591;52.532;13.348;2023-03-01T08:49:34;12.33;;;8.30;;
20861;SDS011;10591;52.532;13.348;2023-03-01T08:52:05;11.05;;;6.58;;
20861;SDS011;10591;52.532;13.348;2023-03-01T08:54:36;10.98;;;7.10;;
20861;SDS011;10591;52.532;13.348;2023-03-01T08:57:06;17.23;;;7.63;;
20861;SDS011;10591;52.532;13.348;2023-03-01T08:59:39;16.20;;;6.93;;
20861;SDS011;10591;52.532;13.348;2023-03-01T09:02:16;21.13;;;7.40;;
20861;SDS011;10591;52.532;13.348;2023-03-01T09:04:44;21.10;;;7.37;;
20861;SDS011;10591;52.532;13.348;2023-03-01T09:07:14;13.32;;;7.08;;
20861;SDS011;10591;52.532;13.348;2023-03-01T09:09:47;12.95;;;6.42;;
20861;SDS011;10591;52.532;13.348;2023-03-01T09:12:17;10.53;;;7.47;;
20861;SDS011;10591;52.532;13.348;2023-03-01T09:14:48;10.35;;;6.97;;
20861;SDS011;10591;52.532;13.348;2023-03-01T09:17:19;15.13;;;7.83;;
20861;SDS011;10591;52.532;13.348;2023-03-01T09:19:51;13.80;;;9.48;;
20861;SDS011;10591;52.532;13.348;2023-03-01T09:22:23;10.80;;;7.10;;
20861;SDS011;10591;52.532;13.348;2023-03-01T09:24:54;8.98;;;6.50;;
20861;SDS011;10591;52.532;13.348;2023-03-01T09:27:25;10.00;;;6.62;;
20861;SDS011;10591;52.532;13.348;2023-03-01T09:29:56;10.90;;;7.12;;
20861;SDS011;10591;52.532;13.348;2023-03-01T09:32:30;10.20;;;6.70;;
20861;SDS011;10591;52.532;13.348;2023-03-01T09:35:00;12.30;;;8.65;;
20861;SDS011;10591;52.532;13.348;2023-03-01T09:37:34;8.88;;;6.45;;
20861;SDS011;10591;52.532;13.348;2023-03-01T09:40:09;9.30;;;6.97;;
20861;SDS011;10591;52.532;13.348;2023-03-01T09:42:48;8.20;;;6.45;;
20861;SDS011;10591;52.532;13.348;2023-03-01T09:45:28;11.65;;;6.85;;
20861;SDS011;10591;52.532;13.348;2023-03-01T09:48:00;9.18;;;7.25;;
20861;SDS011;10591;52.532;13.348;2023-03-01T09:50:38;11.27;;;7.50;;
20861;SDS011;10591;52.532;13.348;2023-03-01T09:53:18;10.00;;;7.58;;
20861;SDS011;10591;52.532;13.348;2023-03-01T09:56:01;10.80;;;7.05;;
20861;SDS011;10591;52.532;13.348;2023-03-01T09:58:37;8.65;;;6.10;;
20861;SDS011;10591;52.532;13.348;2023-03-01T10:01:27;10.72;;;7.03;;
20861;SDS011;10591;52.532;13.348;2023-03-01T10:09:46;9.98;;;7.58;;
20861;SDS011;10591;52.532;13.348;2023-03-01T10:12:18;12.43;;;8.65;;
20861;SDS011;10591;52.532;13.348;2023-03-01T10:17:36;8.13;;;6.42;;
20861;SDS011;10591;52.532;13.348;2023-03-01T10:20:19;8.65;;;6.08;;
20861;SDS011;10591;52.532;13.348;2023-03-01T10:22:51;6.37;;;5.20;;
20861;SDS011;10591;52.532;13.348;2023-03-01T10:30:50;10.03;;;5.37;;
20861;SDS011;10591;52.532;13.348;2023-03-01T10:33:27;8.13;;;5.28;;
20861;SDS011;10591;52.532;13.348;2023-03-01T10:35:58;7.62;;;4.97;;
20861;SDS011;10591;52.532;13.348;2023-03-01T10:38:31;9.45;;;4.95;;
20861;SDS011;10591;52.532;13.348;2023-03-01T10:41:21;7.97;;;4.43;;
20861;SDS011;10591;52.532;13.348;2023-03-01T10:43:54;7.35;;;4.50;;
20861;SDS011;10591;52.532;13.348;2023-03-01T10:46:34;6.25;;;4.25;;
20861;SDS011;10591;52.532;13.348;2023-03-01T10:49:07;5.97;;;3.80;;
20861;SDS011;10591;52.532;13.348;2023-03-01T10:51:47;5.28;;;4.28;;
20861;SDS011;10591;52.532;13.348;2023-03-01T10:54:21;5.50;;;4.03;;
20861;SDS011;10591;52.532;13.348;2023-03-01T10:57:03;6.87;;;4.62;;
20861;SDS011;10591;52.532;13.348;2023-03-01T10:59:35;6.72;;;4.12;;
20861;SDS011;10591;52.532;13.348;2023-03-01T11:02:28;5.83;;;3.98;;
20861;SDS011;10591;52.532;13.348;2023-03-01T11:05:00;5.90;;;4.80;;
20861;SDS011;10591;52.532;13.348;2023-03-01T11:07:32;5.80;;;4.20;;
20861;SDS011;10591;52.532;13.348;2023-03-01T11:10:11;4.58;;;3.65;;
20861;SDS011;10591;52.532;13.348;2023-03-01T11:12:41;5.10;;;3.80;;
20861;SDS011;10591;52.532;13.348;2023-03-01T11:15:30;5.15;;;3.33;;
20861;SDS011;10591;52.532;13.348;2023-03-01T11:17:59;8.33;;;3.50;;
20861;SDS011;10591;52.532;13.348;2023-03-01T11:20:35;5.00;;;3.77;;
20861;SDS011;10591;52.532;13.348;2023-03-01T11:23:10;5.62;;;3.25;;
20861;SDS011;10591;52.532;13.348;2023-03-01T11:25:51;5.40;;;3.17;;
20861;SDS011;10591;52.532;13.348;2023-03-01T11:28:19;5.30;;;3.77;;
20861;SDS011;10591;52.532;13.348;2023-03-01T11:36:16;4.95;;;3.50;;
20861;SDS011;10591;52.532;13.348;2023-03-01T11:39:05;6.80;;;3.90;;
20861;SDS011;10591;52.532;13.348;2023-03-01T11:42:01;13.50;;;4.45;;
20861;SDS011;10591;52.532;13.348;2023-03-01T11:44:34;6.28;;;4.12;;
20861;SDS011;10591;52.532;13.348;2023-03-01T11:50:08;9.13;;;4.35;;
20861;SDS011;10591;52.532;13.348;2023-03-01T11:53:01;6.60;;;4.17;;
20861;SDS011;10591;52.532;13.348;2023-03-01T11:58:35;4.97;;;3.42;;
20861;SDS011;10591;52.532;13.348;2023-03-01T12:04:20;6.33;;;3.75;;
20861;SDS011;10591;52.532;13.348;2023-03-01T12:07:00;5.03;;;3.12;;
20861;SDS011;10591;52.532;13.348;2023-03-01T12:26:33;7.28;;;4.12;;
20861;SDS011;10591;52.532;13.348;2023-03-01T12:32:16;5.53;;;3.70;;
20861;SDS011;10591;52.532;13.348;2023-03-01T12:43:54;5.65;;;4.00;;
20861;SDS011;10591;52.532;13.348;2023-03-01T12:46:43;6.15;;;4.37;;
20861;SDS011;10591;52.532;13.348;2023-03-01T12:49:30;4.80;;;3.42;;
20861;SDS011;10591;52.532;13.348;2023-03-01T12:52:15;4.78;;;3.80;;
20861;SDS011;10591;52.532;13.348;2023-03-01T12:54:53;5.85;;;3.27;;
20861;SDS011;10591;52.532;13.348;2023-03-01T12:57:32;3.98;;;3.55;;
20861;SDS011;10591;52.532;13.348;2023-03-01T13:00:10;4.33;;;3.45;;
20861;SDS011;10591;52.532;13.348;2023-03-01T13:02:52;5.03;;;3.65;;
20861;SDS011;10591;52.532;13.348;2023-03-01T13:08:06;4.80;;;3.58;;
20861;SDS011;10591;52.532;13.348;2023-03-01T13:10:54;5.90;;;3.70;;
20861;SDS011;10591;52.532;13.348;2023-03-01T13:13:27;4.85;;;3.58;;
20861;SDS011;10591;52.532;13.348;2023-03-01T13:16:19;3.58;;;3.27;;
20861;SDS011;10591;52.532;13.348;2023-03-01T13:18:55;3.77;;;2.80;;
20861;SDS011;10591;52.532;13.348;2023-03-01T13:21:34;3.62;;;2.83;;
20861;SDS011;10591;52.532;13.348;2023-03-01T13:24:00;4.40;;;3.20;;
20861;SDS011;10591;52.532;13.348;2023-03-01T13:26:53;4.10;;;2.98;;
20861;SDS011;10591;52.532;13.348;2023-03-01T13:29:11;4.75;;;3.62;;
20861;SDS011;10591;52.532;13.348;2023-03-01T13:37:29;2.77;;;2.52;;
20861;SDS011;10591;52.532;13.348;2023-03-01T13:40:01;3.75;;;2.87;;
20861;SDS011;10591;52.532;13.348;2023-03-01T13:42:35;5.53;;;3.10;;
20861;SDS011;10591;52.532;13.348;2023-03-01T13:45:25;5.30;;;3.00;;
20861;SDS011;10591;52.532;13.348;2023-03-01T13:48:09;7.15;;;3.50;;
20861;SDS011;10591;52.532;13.348;2023-03-01T13:51:00;5.87;;;3.12;;
20861;SDS011;10591;52.532;13.348;2023-03-01T13:53:35;4.90;;;2.95;;
20861;SDS011;10591;52.532;13.348;2023-03-01T13:56:18;5.97;;;2.90;;
20861;SDS011;10591;52.532;13.348;2023-03-01T13:59:25;3.52;;;2.52;;
20861;SDS011;10591;52.532;13.348;2023-03-01T14:01:34;3.58;;;3.02;;
20861;SDS011;10591;52.532;13.348;2023-03-01T14:04:18;5.25;;;3.60;;
20861;SDS011;10591;52.532;13.348;2023-03-01T14:07:08;3.95;;;2.67;;
20861;SDS011;10591;52.532;13.348;2023-03-01T14:09:42;3.08;;;2.40;;
20861;SDS011;10591;52.532;13.348;2023-03-01T14:20:44;4.25;;;3.27;;
20861;SDS011;10591;52.532;13.348;2023-03-01T14:23:21;3.60;;;2.90;;
20861;SDS011;10591;52.532;13.348;2023-03-01T14:25:57;4.00;;;3.22;;
20861;SDS011;10591;52.532;13.348;2023-03-01T14:28:29;7.40;;;4.85;;
20861;SDS011;10591;52.532;13.348;2023-03-01T14:31:03;4.20;;;3.27;;
20861;SDS011;10591;52.532;13.348;2023-03-01T14:33:54;3.60;;;2.72;;
20861;SDS011;10591;52.532;13.348;2023-03-01T14:36:31;3.20;;;2.52;;
20861;SDS011;10591;52.532;13.348;2023-03-01T14:38:59;5.05;;;2.62;;
20861;SDS011;10591;52.532;13.348;2023-03-01T14:41:33;4.70;;;2.50;;
20861;SDS011;10591;52.532;13.348;2023-03-01T14:44:06;3.52;;;2.75;;
20861;SDS011;10591;52.532;13.348;2023-03-01T14:46:39;5.40;;;2.70;;
20861;SDS011;10591;52.532;13.348;2023-03-01T14:49:32;4.15;;;2.83;;
20861;SDS011;10591;52.532;13.348;2023-03-01T14:51:59;3.40;;;2.90;;
20861;SDS011;10591;52.532;13.348;2023-03-01T14:54:37;3.33;;;2.45;;
20861;SDS011;10591;52.532;13.348;2023-03-01T14:57:14;4.58;;;2.77;;
20861;SDS011;10591;52.532;13.348;2023-03-01T14:59:59;6.05;;;3.60;;
20861;SDS011;10591;52.532;13.348;2023-03-01T15:02:29;4.08;;;3.10;;
20861;SDS011;10591;52.532;13.348;2023-03-01T15:05:02;2.67;;;2.27;;
20861;SDS011;10591;52.532;13.348;2023-03-01T15:07:38;3.27;;;2.70;;
20861;SDS011;10591;52.532;13.348;2023-03-01T15:10:23;5.33;;;2.70;;
20861;SDS011;10591;52.532;13.348;2023-03-01T15:12:50;7.20;;;3.10;;
20861;SDS011;10591;52.532;13.348;2023-03-01T15:18:02;5.25;;;3.10;;
20861;SDS011;10591;52.532;13.348;2023-03-01T15:20:35;3.05;;;2.60;;
20861;SDS011;10591;52.532;13.348;2023-03-01T15:23:05;3.27;;;2.80;;
20861;SDS011;10591;52.532;13.348;2023-03-01T15:25:43;3.05;;;2.65;;
20861;SDS011;10591;52.532;13.348;2023-03-01T15:28:17;4.08;;;2.40;;
20861;SDS011;10591;52.532;13.348;2023-03-01T15:30:46;6.05;;;2.35;;
20861;SDS011;10591;52.532;13.348;2023-03-01T15:35:57;2.75;;;2.35;;
20861;SDS011;10591;52.532;13.348;2023-03-01T15:38:34;3.45;;;2.72;;
20861;SDS011;10591;52.532;13.348;2023-03-01T15:41:24;3.27;;;2.45;;
20861;SDS011;10591;52.532;13.348;2023-03-01T15:44:14;2.80;;;2.37;;
20861;SDS011;10591;52.532;13.348;2023-03-01T15:46:35;3.70;;;2.62;;
20861;SDS011;10591;52.532;13.348;2023-03-01T15:49:21;3.72;;;2.40;;
20861;SDS011;10591;52.532;13.348;2023-03-01T15:51:58;7.45;;;3.87;;
20861;SDS011;10591;52.532;13.348;2023-03-01T15:54:29;6.47;;;3.92;;
20861;SDS011;10591;52.532;13.348;2023-03-01T15:57:00;3.95;;;2.52;;
20861;SDS011;10591;52.532;13.348;2023-03-01T15:59:31;4.67;;;2.92;;
20861;SDS011;10591;52.532;13.348;2023-03-01T16:02:01;3.47;;;2.83;;
20861;SDS011;10591;52.532;13.348;2023-03-01T16:04:33;4.33;;;3.40;;
20861;SDS011;10591;52.532;13.348;2023-03-01T16:07:04;4.53;;;2.90;;
20861;SDS011;10591;52.532;13.348;2023-03-01T16:09:35;4.35;;;3.52;;
20861;SDS011;10591;52.532;13.348;2023-03-01T16:12:05;7.85;;;4.40;;
20861;SDS011;10591;52.532;13.348;2023-03-01T16:14:37;6.95;;;3.52;;
20861;SDS011;10591;52.532;13.348;2023-03-01T16:17:08;5.53;;;3.33;;
20861;SDS011;10591;52.532;13.348;2023-03-01T16:19:39;7.65;;;4.35;;
20861;SDS011;10591;52.532;13.348;2023-03-01T16:22:10;6.35;;;3.90;;